首页
METAR-TAF:

METAR-TAF

机场 :

哈里斯堡 / Middletown, 宾夕法尼亚州, 美国

纬度: 40-11-37N, 经度: 076-45-48W, 海拔: 95米

当前天气观测

该预报发布于46分钟前的08:56 UTC
风速8节,风向西转西北
温度 -4°C
湿度 54%
气压 1026 hPa
能見度: 16.1公里
天空无云

METAR: KMDT 130856Z 29008KT 10SM CLR M04/M12 A3030 RMK AO2 SLP264 T10391117 51010

时间: 04:42 (09:42 UTC)

预报

该预报发布于1小时和30分钟前的08:12 UTC
预报有效从13日的 08点(UTC)到 14日的 06点(UTC)
风速8节,风向西北
能見度: 10公里
天空无云
从 13日的 2000点(UTC)
风速3节,风向多变
能見度: 10公里
天空无云

TAF: KMDT 130812Z 1308/1406 31008KT P6SM SKC FM132000 VRB03KT P6SM SKC

超过4000个机场的气象观测和天气预报(METAR&TAF报告)。

可查询的气象台以黄色和红色小点在地图上表示。

将鼠标移到小点上方,可查看气象台名称。

然后点击查看天气观测和预报。

如需切换地图:点击带黑十字的绿色按钮放大地图;点击带横线的绿色按钮缩小地图;或者点击绿色箭头查看邻近地区的地图。


METAR-TAF: